LGKR/CFU METAR and TAF weather

Enter ICAO airport designator
Station Type Date Time Source
LGKR METAR 2019/12/13 03:20 UTC NOAA

LGKR 130320Z 10007KT 9999 SCT015TCU BKN030 BKN080 10/09 Q1003 NOSIG


Station Type Date Time Source
LGKR Decoded METAR 2019/12/13 03:20 UTC NOAA

Kerkyra Airport , Greece (LGKR) 39-37N 019-55E 4M
Dec 12, 2019 - 10:20 PM EST / 2019.12.13 0320 UTC
Wind: from the E (100 degrees) at 8 MPH (7 KT):0
Visibility: greater than 7 mile(s):0
Sky conditions: mostly cloudy
Weather: Towering cumulus clouds observed
Temperature: 50 F (10 C)
Dew Point: 48 F (9 C)
Relative Humidity: 93%
Pressure (altimeter): 29.62 in. Hg (1003 hPa)
ob: LGKR 130320Z 10007KT 9999 SCT015TCU BKN030 BKN080 10/09 Q1003 NOSIG
cycle: 3

Station Type Date Time Source
LGKR TAF 2019/12/12 18:16 UTC NOAA

TAF LGKR 121700Z 1218/1318 16010KT 9999 FEW012 SCT018 BKN025 PROB40
TEMPO 1218/1318 5000 RA SCT008 BKN020 BKN070 PROB40
TEMPO 1223/1318 4000 TSRA SCT008 FEW018CB BKN020 OVC070

Example: see airport list